createdAt,value
2022-12-11T00:01:33.343Z,75.62
2022-12-11T00:04:00.086Z,75.41
2022-12-11T00:06:26.659Z,75.51
2022-12-11T00:08:54.281Z,75.65
2022-12-11T00:11:21.772Z,75.55
2022-12-11T00:13:48.414Z,75.60
2022-12-11T00:16:15.339Z,75.47
2022-12-11T00:18:42.046Z,75.43
2022-12-11T00:21:12.107Z,75.57
2022-12-11T00:23:38.704Z,75.39
2022-12-11T00:26:07.185Z,75.35
2022-12-11T00:28:33.869Z,75.48
2022-12-11T00:31:05.023Z,75.44
2022-12-11T00:33:31.628Z,75.41
2022-12-11T00:35:58.545Z,75.44
2022-12-11T00:38:25.823Z,75.59
2022-12-11T00:40:52.553Z,75.49
2022-12-11T00:43:22.042Z,75.41
2022-12-11T00:45:48.544Z,75.57
2022-12-11T00:48:15.061Z,75.52
2022-12-11T00:50:41.778Z,75.30
2022-12-11T00:53:08.543Z,75.44
2022-12-11T00:55:39.930Z,75.34
2022-12-11T00:58:06.492Z,75.14
2022-12-11T01:00:33.929Z,75.43
2022-12-11T01:03:00.700Z,75.30
2022-12-11T01:05:27.534Z,75.12
2022-12-11T01:07:54.165Z,75.39
2022-12-11T01:10:24.373Z,75.44
2022-12-11T01:12:56.917Z,75.38
2022-12-11T01:15:26.748Z,75.44
2022-12-11T01:17:53.623Z,75.57
2022-12-11T01:20:21.732Z,75.28
2022-12-11T01:22:49.306Z,75.19
2022-12-11T01:25:15.782Z,75.18
2022-12-11T01:27:42.245Z,75.27
2022-12-11T01:30:13.792Z,75.30
2022-12-11T01:32:40.297Z,75.44
2022-12-11T01:35:07.971Z,75.25
2022-12-11T01:37:34.715Z,75.47
2022-12-11T01:40:01.546Z,75.58
2022-12-11T01:42:29.009Z,75.40
2022-12-11T01:45:27.306Z,75.56
2022-12-11T01:48:05.016Z,75.39
2022-12-11T01:50:35.184Z,75.34
2022-12-11T01:53:03.840Z,75.49
2022-12-11T01:55:31.779Z,75.24
2022-12-11T01:57:58.501Z,75.25
2022-12-11T02:00:25.043Z,75.12
2022-12-11T02:02:52.151Z,75.07
2022-12-11T02:05:18.797Z,75.12
2022-12-11T02:07:48.107Z,75.11
2022-12-11T02:10:15.003Z,75.30
2022-12-11T02:12:46.502Z,75.12
2022-12-11T02:15:41.335Z,75.34
2022-12-11T02:18:40.209Z,75.23
2022-12-11T02:21:14.787Z,75.26
2022-12-11T02:24:12.085Z,75.07
2022-12-11T02:26:56.151Z,75.08
2022-12-11T02:29:33.199Z,75.07
2022-12-11T02:32:14.526Z,74.86
2022-12-11T02:34:44.537Z,75.13
2022-12-11T02:37:16.772Z,75.19
2022-12-11T02:39:44.018Z,75.06
2022-12-11T02:42:10.891Z,75.06
2022-12-11T02:44:37.823Z,74.99
2022-12-11T02:47:06.817Z,74.96
2022-12-11T02:49:33.448Z,75.23
2022-12-11T02:52:03.825Z,75.03
2022-12-11T02:54:32.971Z,75.08
2022-12-11T02:57:16.958Z,75.17
2022-12-11T02:59:45.331Z,75.01
2022-12-11T03:02:14.202Z,74.90
2022-12-11T03:04:41.631Z,75.17
2022-12-11T03:07:22.759Z,74.91
2022-12-11T03:09:51.849Z,74.79
2022-12-11T03:12:20.655Z,74.90
2022-12-11T03:14:48.355Z,75.04
2022-12-11T03:17:18.942Z,74.95
2022-12-11T03:20:12.873Z,74.89
2022-12-11T03:22:51.734Z,75.01
2022-12-11T03:25:25.089Z,75.11
2022-12-11T03:28:24.946Z,75.27
2022-12-11T03:30:53.138Z,75.00
2022-12-11T03:33:25.135Z,75.07
2022-12-11T03:35:58.903Z,75.09
2022-12-11T03:38:31.319Z,75.20
2022-12-11T03:41:00.792Z,75.02
2022-12-11T03:43:28.547Z,74.97
2022-12-11T03:45:55.443Z,75.12
2022-12-11T03:48:22.875Z,75.26
2022-12-11T03:50:49.312Z,75.28
2022-12-11T03:53:19.207Z,75.27
2022-12-11T03:55:45.770Z,75.49
2022-12-11T03:58:12.220Z,75.56
2022-12-11T04:00:38.729Z,75.55
2022-12-11T04:03:13.970Z,75.43
2022-12-11T04:05:47.730Z,75.34
2022-12-11T04:08:15.215Z,75.36
2022-12-11T04:10:42.412Z,75.27
2022-12-11T04:13:09.117Z,75.09
2022-12-11T04:15:36.257Z,75.15
2022-12-11T04:18:21.784Z,75.33
2022-12-11T04:21:06.970Z,75.19
2022-12-11T04:23:52.194Z,75.31
2022-12-11T04:26:20.513Z,75.17
2022-12-11T04:28:47.839Z,75.39
2022-12-11T04:31:19.560Z,75.51
2022-12-11T04:33:46.833Z,75.34
2022-12-11T04:36:13.913Z,75.10
2022-12-11T04:38:40.986Z,75.09
2022-12-11T04:41:11.323Z,74.89
2022-12-11T04:43:37.853Z,74.78
2022-12-11T04:46:25.312Z,74.77
2022-12-11T04:48:57.315Z,74.74
2022-12-11T04:51:24.675Z,74.68
2022-12-11T04:53:51.523Z,74.62
2022-12-11T04:56:18.767Z,74.75
2022-12-11T04:58:45.267Z,74.73
2022-12-11T05:01:17.419Z,74.68
2022-12-11T05:03:45.403Z,74.82
2022-12-11T05:06:12.592Z,75.13
2022-12-11T05:08:40.313Z,74.99
2022-12-11T05:11:09.474Z,74.82
2022-12-11T05:13:36.183Z,74.97
2022-12-11T05:16:05.332Z,74.55
2022-12-11T05:18:32.394Z,74.59
2022-12-11T05:21:01.350Z,74.54
2022-12-11T05:23:28.698Z,74.49
2022-12-11T05:25:58.063Z,74.38
2022-12-11T05:28:26.683Z,74.36
2022-12-11T05:30:58.004Z,74.30
2022-12-11T05:33:25.231Z,74.49
2022-12-11T05:35:52.187Z,74.37
2022-12-11T05:38:18.704Z,74.38
2022-12-11T05:40:46.285Z,74.35
2022-12-11T05:43:12.650Z,74.52
2022-12-11T05:45:39.271Z,74.66
2022-12-11T05:48:06.046Z,74.38
2022-12-11T05:50:32.636Z,74.52
2022-12-11T05:52:59.149Z,74.42
2022-12-11T05:55:25.648Z,73.95
2022-12-11T05:57:52.995Z,74.26
2022-12-11T06:00:19.601Z,74.04
2022-12-11T06:02:46.942Z,74.15
2022-12-11T06:05:13.797Z,74.17
2022-12-11T06:07:40.304Z,73.96
2022-12-11T06:10:07.238Z,74.22
2022-12-11T06:12:34.080Z,74.45
2022-12-11T06:15:00.662Z,74.15
2022-12-11T06:17:27.321Z,74.14
2022-12-11T06:19:53.682Z,74.34
2022-12-11T06:22:20.158Z,74.23
2022-12-11T06:24:47.422Z,74.22
2022-12-11T06:27:14.136Z,74.18
2022-12-11T06:29:40.537Z,74.08
2022-12-11T06:32:07.388Z,73.85
2022-12-11T06:34:33.773Z,74.09
2022-12-11T06:37:00.625Z,73.97
2022-12-11T06:39:27.533Z,73.79
2022-12-11T06:41:53.911Z,73.84
2022-12-11T06:44:20.607Z,73.99
2022-12-11T06:46:47.180Z,73.86
2022-12-11T06:49:13.651Z,73.87
2022-12-11T06:51:40.164Z,73.87
2022-12-11T06:54:06.630Z,74.03
2022-12-11T06:56:34.214Z,74.10
2022-12-11T06:59:06.973Z,74.12
2022-12-11T07:01:34.360Z,73.86
2022-12-11T07:04:00.764Z,73.63
2022-12-11T07:06:27.914Z,73.98
2022-12-11T07:08:54.506Z,73.83
2022-12-11T07:11:21.658Z,73.68
2022-12-11T07:13:48.281Z,73.76
2022-12-11T07:16:16.979Z,73.32
2022-12-11T07:18:47.444Z,73.28
2022-12-11T07:21:14.357Z,73.45
2022-12-11T07:23:41.481Z,73.70
2022-12-11T07:26:08.825Z,73.65
2022-12-11T07:28:35.530Z,73.89
2022-12-11T07:31:06.900Z,73.68
2022-12-11T07:33:33.892Z,73.63
2022-12-11T07:36:05.324Z,73.63
2022-12-11T07:38:32.497Z,73.75
2022-12-11T07:41:07.755Z,73.75
2022-12-11T07:43:34.598Z,73.46
2022-12-11T07:46:06.276Z,73.72
2022-12-11T07:48:36.250Z,73.45
2022-12-11T07:51:29.901Z,73.47
2022-12-11T07:54:02.331Z,73.12
2022-12-11T07:56:30.035Z,73.06
2022-12-11T07:59:02.276Z,73.30
2022-12-11T08:01:42.885Z,73.01
2022-12-11T08:04:11.096Z,73.15
2022-12-11T08:06:39.361Z,73.03
2022-12-11T08:09:08.085Z,73.24
2022-12-11T08:11:34.932Z,73.18
2022-12-11T08:14:01.976Z,73.05
2022-12-11T08:16:28.940Z,73.35
2022-12-11T08:18:55.381Z,72.89
2022-12-11T08:21:24.437Z,72.88
2022-12-11T08:23:52.116Z,73.01
2022-12-11T08:26:23.976Z,72.81
2022-12-11T08:28:51.052Z,72.95
2022-12-11T08:31:19.261Z,73.02
2022-12-11T08:33:46.511Z,73.16
2022-12-11T08:36:13.816Z,72.79
2022-12-11T08:38:40.806Z,72.66
2022-12-11T08:41:08.637Z,72.31
2022-12-11T08:43:36.329Z,72.38
2022-12-11T08:46:03.871Z,72.44
2022-12-11T08:48:30.569Z,72.43
2022-12-11T08:51:05.302Z,72.42
2022-12-11T08:53:32.828Z,72.44
2022-12-11T08:56:08.283Z,72.27
2022-12-11T08:58:35.219Z,72.21
2022-12-11T09:01:20.904Z,72.13
2022-12-11T09:03:48.941Z,71.99
2022-12-11T09:06:18.027Z,71.85
2022-12-11T09:08:51.683Z,72.08
2022-12-11T09:11:22.501Z,72.35
2022-12-11T09:13:49.299Z,72.24
2022-12-11T09:16:18.542Z,72.44
2022-12-11T09:18:47.319Z,72.43
2022-12-11T09:21:17.039Z,72.24
2022-12-11T09:23:44.049Z,72.04
2022-12-11T09:26:12.306Z,71.90
2022-12-11T09:28:44.435Z,72.13
2022-12-11T09:31:23.039Z,71.99
2022-12-11T09:33:51.451Z,72.14
2022-12-11T09:36:18.513Z,72.05
2022-12-11T09:38:45.596Z,71.75
2022-12-11T09:41:21.502Z,71.74
2022-12-11T09:43:53.866Z,71.05
2022-12-11T09:46:24.439Z,71.21
2022-12-11T09:48:53.080Z,71.27
2022-12-11T09:51:26.219Z,71.57
2022-12-11T09:53:54.527Z,71.51
2022-12-11T09:56:20.977Z,71.67
2022-12-11T09:58:56.886Z,71.64
2022-12-11T10:01:43.097Z,72.06
2022-12-11T10:04:28.792Z,72.08
2022-12-11T10:07:32.784Z,72.01
2022-12-11T10:10:36.556Z,72.14
2022-12-11T10:13:21.840Z,72.10
2022-12-11T10:15:54.125Z,71.84
2022-12-11T10:18:23.827Z,72.02
2022-12-11T10:20:52.196Z,72.07
2022-12-11T10:23:27.778Z,71.83
2022-12-11T10:26:07.840Z,72.07
2022-12-11T10:28:34.926Z,71.74
2022-12-11T10:31:07.290Z,71.23
2022-12-11T10:33:41.267Z,71.24
2022-12-11T10:36:08.720Z,70.97
2022-12-11T10:38:42.187Z,70.94
2022-12-11T10:41:15.577Z,71.11
2022-12-11T10:43:48.131Z,71.08
2022-12-11T10:46:27.139Z,70.95
2022-12-11T10:49:04.052Z,71.07
2022-12-11T10:51:37.204Z,70.80
2022-12-11T10:55:01.177Z,70.87
2022-12-11T10:57:32.410Z,70.93
2022-12-11T10:59:59.682Z,71.19
2022-12-11T11:02:28.970Z,70.47
2022-12-11T11:04:58.002Z,70.99
2022-12-11T11:07:27.425Z,70.59
2022-12-11T11:10:09.638Z,70.71
2022-12-11T11:12:42.465Z,70.51
2022-12-11T11:15:17.668Z,70.42
2022-12-11T11:17:54.650Z,70.77
2022-12-11T11:20:28.520Z,70.34
2022-12-11T11:23:04.043Z,70.33
2022-12-11T11:25:32.717Z,70.62
2022-12-11T11:28:01.823Z,70.48
2022-12-11T11:30:31.065Z,70.45
2022-12-11T11:33:18.735Z,70.29
2022-12-11T11:36:25.586Z,70.14
2022-12-11T11:39:14.403Z,70.19
2022-12-11T11:41:53.566Z,69.75
2022-12-11T11:44:29.411Z,69.90
2022-12-11T11:47:04.959Z,69.93
2022-12-11T11:49:50.224Z,69.94
2022-12-11T11:52:38.735Z,70.28
2022-12-11T11:55:44.082Z,70.06
2022-12-11T11:58:15.837Z,70.29
2022-12-11T12:00:42.976Z,69.95
2022-12-11T12:03:11.003Z,70.02
2022-12-11T12:05:53.724Z,70.18
2022-12-11T12:08:43.878Z,70.53
2022-12-11T12:11:42.388Z,70.20
2022-12-11T12:14:51.642Z,70.06
2022-12-11T12:17:56.545Z,70.42
2022-12-11T12:20:32.191Z,70.17
2022-12-11T12:23:01.705Z,70.32
2022-12-11T12:25:40.096Z,70.05
2022-12-11T12:28:37.565Z,70.18
2022-12-11T12:31:10.175Z,70.18
2022-12-11T12:34:34.787Z,70.03
2022-12-11T12:37:05.929Z,70.20
2022-12-11T12:43:05.857Z,70.48
2022-12-11T12:46:13.473Z,70.32
2022-12-11T12:48:40.051Z,70.18
2022-12-11T12:51:08.261Z,69.86
2022-12-11T12:53:36.905Z,70.12
2022-12-11T12:56:04.327Z,69.96
2022-12-11T12:58:42.271Z,69.80
2022-12-11T13:01:11.779Z,69.99
2022-12-11T13:04:02.474Z,69.86
2022-12-11T13:06:50.984Z,69.54
2022-12-11T13:09:21.323Z,69.46
2022-12-11T13:11:53.957Z,69.51
2022-12-11T13:14:20.522Z,69.54
2022-12-11T13:16:49.587Z,69.50
2022-12-11T13:19:23.317Z,69.52
2022-12-11T13:22:11.561Z,68.95
2022-12-11T13:24:49.511Z,68.91
2022-12-11T13:27:35.596Z,69.50
2022-12-11T13:30:14.052Z,69.10
2022-12-11T13:32:49.563Z,69.05
2022-12-11T13:35:17.021Z,69.13
2022-12-11T13:37:44.887Z,69.46
2022-12-11T13:40:24.507Z,69.32
2022-12-11T13:42:57.116Z,69.55
2022-12-11T13:45:44.491Z,69.66
2022-12-11T13:48:27.599Z,69.77
2022-12-11T13:50:55.535Z,69.36
2022-12-11T13:53:23.062Z,69.55
2022-12-11T13:56:02.084Z,69.32
2022-12-11T13:58:30.411Z,69.50
2022-12-11T14:01:17.121Z,69.31
2022-12-11T14:03:55.561Z,69.63
2022-12-11T14:06:22.612Z,69.56
2022-12-11T14:08:50.166Z,69.48
2022-12-11T14:11:34.418Z,69.37
2022-12-11T14:14:03.311Z,69.17
2022-12-11T14:16:30.347Z,68.97
2022-12-11T14:19:03.645Z,68.51
2022-12-11T14:21:31.611Z,68.78
2022-12-11T14:24:00.023Z,68.40
2022-12-11T14:26:34.169Z,68.35
2022-12-11T14:29:02.207Z,68.71
2022-12-11T14:31:33.336Z,68.65
2022-12-11T14:34:07.360Z,68.25
2022-12-11T14:36:34.766Z,68.56
2022-12-11T14:39:11.413Z,68.38
2022-12-11T14:41:48.442Z,68.52
2022-12-11T14:44:16.642Z,68.79
2022-12-11T14:46:49.492Z,68.77
2022-12-11T14:49:27.258Z,68.76
2022-12-11T14:51:54.970Z,68.83
2022-12-11T14:54:38.818Z,68.84
2022-12-11T14:57:06.214Z,68.94
2022-12-11T14:59:40.440Z,69.14
2022-12-11T15:02:24.691Z,68.98
2022-12-11T15:05:09.945Z,69.17
2022-12-11T15:07:36.810Z,69.36
2022-12-11T15:10:03.940Z,69.09
2022-12-11T15:12:30.420Z,69.31
2022-12-11T15:15:04.348Z,69.51
2022-12-11T15:17:32.725Z,69.46
2022-12-11T15:20:08.055Z,69.58
2022-12-11T15:22:35.528Z,69.55
2022-12-11T15:25:02.426Z,69.41
2022-12-11T15:27:37.745Z,69.49
2022-12-11T15:30:25.904Z,69.50
2022-12-11T15:33:10.970Z,69.40
2022-12-11T15:35:39.684Z,69.39
2022-12-11T15:38:06.437Z,69.14
2022-12-11T15:40:33.228Z,68.88
2022-12-11T15:43:01.718Z,68.70
2022-12-11T15:45:28.465Z,68.71
2022-12-11T15:47:55.730Z,68.90
2022-12-11T15:50:27.552Z,68.47
2022-12-11T15:52:55.722Z,68.61
2022-12-11T15:55:24.760Z,68.56
2022-12-11T15:57:52.989Z,68.42
2022-12-11T16:00:20.335Z,68.25
2022-12-11T16:02:47.270Z,68.43
2022-12-11T16:05:14.252Z,68.36
2022-12-11T16:07:41.326Z,68.53
2022-12-11T16:10:14.153Z,68.21
2022-12-11T16:12:41.519Z,68.47
2022-12-11T16:15:08.816Z,68.45
2022-12-11T16:17:35.668Z,68.61
2022-12-11T16:20:02.513Z,68.49
2022-12-11T16:22:28.951Z,68.32
2022-12-11T16:24:55.565Z,68.42
2022-12-11T16:27:23.330Z,68.52
2022-12-11T16:29:50.706Z,68.65
2022-12-11T16:32:18.110Z,68.81
2022-12-11T16:34:44.663Z,68.70
2022-12-11T16:37:12.421Z,68.68
2022-12-11T16:39:39.225Z,68.76
2022-12-11T16:42:06.255Z,68.71
2022-12-11T16:44:32.885Z,68.81
2022-12-11T16:46:59.300Z,68.49
2022-12-11T16:49:26.129Z,68.41
2022-12-11T16:51:52.671Z,68.43
2022-12-11T16:54:19.134Z,68.40
2022-12-11T16:56:45.784Z,68.53
2022-12-11T16:59:12.458Z,68.70
2022-12-11T17:01:38.988Z,68.58
2022-12-11T17:04:05.984Z,68.67
2022-12-11T17:06:32.599Z,68.50
2022-12-11T17:08:59.469Z,68.53
2022-12-11T17:11:26.587Z,68.63
2022-12-11T17:13:58.386Z,68.64
2022-12-11T17:16:28.622Z,68.89
2022-12-11T17:18:56.540Z,68.85
2022-12-11T17:21:23.473Z,69.00
2022-12-11T17:23:50.688Z,68.93
2022-12-11T17:26:17.802Z,69.09
2022-12-11T17:28:44.594Z,69.45
2022-12-11T17:31:17.293Z,69.25
2022-12-11T17:33:45.097Z,69.37
2022-12-11T17:36:14.154Z,69.27
2022-12-11T17:38:41.288Z,69.51
2022-12-11T17:41:08.313Z,69.60
2022-12-11T17:43:34.928Z,69.74
2022-12-11T17:46:01.630Z,70.06
2022-12-11T17:48:28.475Z,69.88
2022-12-11T17:50:55.293Z,70.11
2022-12-11T17:53:22.968Z,69.79
2022-12-11T17:55:51.254Z,70.28
2022-12-11T17:58:21.350Z,70.21
2022-12-11T18:00:50.997Z,69.97
2022-12-11T18:03:18.191Z,70.27
2022-12-11T18:05:48.949Z,69.93
2022-12-11T18:08:20.690Z,70.37
2022-12-11T18:10:47.712Z,70.23
2022-12-11T18:13:14.380Z,70.36
2022-12-11T18:15:41.476Z,70.66
2022-12-11T18:18:07.886Z,70.51
2022-12-11T18:20:34.757Z,70.82
2022-12-11T18:23:01.969Z,70.82
2022-12-11T18:25:28.752Z,71.07
2022-12-11T18:27:55.614Z,71.07
2022-12-11T18:30:23.961Z,71.40
2022-12-11T18:32:51.555Z,71.45
2022-12-11T18:35:18.885Z,71.42
2022-12-11T18:37:45.657Z,71.26
2022-12-11T18:40:12.222Z,70.95
2022-12-11T18:42:38.758Z,71.50
2022-12-11T18:45:06.445Z,71.20
2022-12-11T18:47:33.273Z,71.23
2022-12-11T18:50:05.585Z,71.50
2022-12-11T18:52:34.595Z,71.51
2022-12-11T18:55:01.407Z,71.70
2022-12-11T18:57:28.164Z,71.75
2022-12-11T18:59:55.506Z,71.99
2022-12-11T19:02:22.259Z,71.85
2022-12-11T19:04:48.930Z,71.88
2022-12-11T19:07:15.518Z,72.03
2022-12-11T19:09:47.533Z,72.05
2022-12-11T19:12:14.890Z,72.07
2022-12-11T19:14:41.680Z,72.12
2022-12-11T19:17:08.330Z,72.09
2022-12-11T19:19:35.613Z,71.94
2022-12-11T19:22:03.167Z,72.08
2022-12-11T19:24:29.807Z,71.93
2022-12-11T19:26:57.034Z,72.05
2022-12-11T19:29:27.328Z,72.19
2022-12-11T19:31:55.054Z,72.50
2022-12-11T19:34:22.645Z,72.26
2022-12-11T19:36:49.752Z,72.52
2022-12-11T19:39:16.160Z,72.53
2022-12-11T19:41:42.750Z,72.43
2022-12-11T19:44:09.749Z,72.64
2022-12-11T19:46:36.626Z,72.58
2022-12-11T19:49:03.763Z,72.62
2022-12-11T19:51:40.884Z,72.68
2022-12-11T19:54:10.636Z,72.58
2022-12-11T19:56:37.905Z,72.67
2022-12-11T19:59:06.446Z,72.59
2022-12-11T20:01:35.848Z,72.60
2022-12-11T20:04:07.143Z,72.78
2022-12-11T20:06:36.186Z,72.66
2022-12-11T20:09:04.712Z,72.60
2022-12-11T20:11:32.479Z,72.73
2022-12-11T20:13:59.346Z,72.61
2022-12-11T20:16:46.379Z,72.68
2022-12-11T20:19:12.968Z,72.79
2022-12-11T20:21:39.556Z,72.82
2022-12-11T20:24:06.487Z,72.95
2022-12-11T20:26:35.904Z,72.81
2022-12-11T20:29:06.732Z,72.83
2022-12-11T20:31:33.724Z,72.79
2022-12-11T20:34:00.274Z,72.63
2022-12-11T20:36:26.860Z,72.66
2022-12-11T20:38:53.387Z,72.81
2022-12-11T20:41:23.308Z,72.66
2022-12-11T20:43:52.670Z,72.91
2022-12-11T20:46:22.773Z,72.87
2022-12-11T20:48:50.216Z,73.00
2022-12-11T20:51:23.855Z,73.04
2022-12-11T20:53:57.828Z,72.99
2022-12-11T20:56:27.505Z,73.07
2022-12-11T20:58:54.567Z,73.15
2022-12-11T21:01:22.937Z,73.15
2022-12-11T21:03:50.756Z,73.03
2022-12-11T21:06:24.756Z,73.08
2022-12-11T21:08:52.367Z,73.10
2022-12-11T21:11:19.701Z,73.05
2022-12-11T21:13:46.463Z,73.33
2022-12-11T21:16:12.929Z,73.29
2022-12-11T21:18:39.535Z,73.33
2022-12-11T21:21:06.382Z,73.14
2022-12-11T21:23:33.315Z,73.09
2022-12-11T21:26:00.091Z,73.27
2022-12-11T21:28:30.582Z,73.39
2022-12-11T21:31:05.109Z,73.46
2022-12-11T21:33:32.682Z,73.37
2022-12-11T21:35:59.469Z,73.68
2022-12-11T21:38:26.604Z,73.57
2022-12-11T21:40:54.245Z,73.52
2022-12-11T21:43:21.461Z,73.78
2022-12-11T21:46:04.645Z,73.45
2022-12-11T21:48:31.803Z,73.69
2022-12-11T21:51:10.299Z,73.75
2022-12-11T21:53:37.674Z,74.02
2022-12-11T21:56:12.232Z,74.02
2022-12-11T21:58:40.559Z,74.09
2022-12-11T22:01:18.751Z,74.12
2022-12-11T22:03:45.758Z,74.12
2022-12-11T22:06:12.350Z,74.38
2022-12-11T22:08:38.885Z,74.28
2022-12-11T22:11:06.068Z,74.15
2022-12-11T22:13:32.539Z,74.43
2022-12-11T22:15:59.166Z,74.53
2022-12-11T22:18:26.642Z,74.45
2022-12-11T22:20:57.293Z,74.38
2022-12-11T22:23:24.396Z,74.51
2022-12-11T22:25:51.407Z,74.38
2022-12-11T22:28:17.883Z,74.59
2022-12-11T22:30:45.094Z,74.69
2022-12-11T22:33:16.748Z,74.54
2022-12-11T22:35:43.213Z,74.38
2022-12-11T22:38:09.769Z,74.65
2022-12-11T22:40:40.839Z,74.70
2022-12-11T22:43:07.374Z,74.49
2022-12-11T22:45:37.846Z,74.57
2022-12-11T22:48:05.581Z,74.98
2022-12-11T22:50:32.299Z,74.78
2022-12-11T22:52:58.798Z,74.86
2022-12-11T22:55:25.571Z,74.71
2022-12-11T22:57:51.987Z,75.09
2022-12-11T23:00:18.515Z,74.86
2022-12-11T23:02:45.875Z,75.05
2022-12-11T23:05:12.812Z,74.98
2022-12-11T23:07:39.558Z,75.09
2022-12-11T23:10:08.382Z,75.00
2022-12-11T23:12:35.673Z,74.88
2022-12-11T23:15:03.203Z,74.84
2022-12-11T23:17:29.912Z,75.01
2022-12-11T23:19:56.448Z,75.19
2022-12-11T23:22:22.910Z,75.02
2022-12-11T23:24:49.491Z,75.02
2022-12-11T23:27:15.978Z,75.38
2022-12-11T23:29:42.589Z,75.30
2022-12-11T23:32:09.655Z,75.43
2022-12-11T23:34:37.065Z,75.39
2022-12-11T23:37:03.569Z,75.39
2022-12-11T23:39:30.050Z,75.52
2022-12-11T23:41:56.485Z,75.43
2022-12-11T23:44:23.032Z,75.39
2022-12-11T23:46:49.417Z,75.21
2022-12-11T23:49:15.916Z,75.34
2022-12-11T23:51:42.374Z,75.45
2022-12-11T23:54:09.165Z,75.29
2022-12-11T23:56:35.769Z,75.44
2022-12-11T23:59:02.244Z,75.52
